St Paul Island Airport
PASN : now visible

Airfield :











YOU CAN JOIN US ON...

 
LOGIN :

Register | Disclaimer

   EN    FR    IT 

 









Legend :    VFR   Marginal VFR   IFR   Intensive IFR   Very Intensive IFR
Visi :
Ceiling :
>= 8 km
>= 3000ft
5 to 8 km
1000 to 3000 ft
1500m to 5 km
500 to 1000 ft
800 to 1500m
200 to 500 ft
< 800m
< 200 ft
Symbols :   Thunderstorms  Fog  Heavy snow  Heavy precipitations  Wind > 20 kt






- Airport Elevation : 63 ft
- IATA code : SNP


PASN - St Paul Island

CURRENT METAR :
  • 301453Z AUTO 07010KT 7SM SCT009 05/03 A2963 RMK SLP034 T00500033 58021 PWINO TSNO $ VIA AUTODIAL

EXPIRED METARs :
  • 301353Z AUTO 06009KT 7SM FEW001 04/03 A2965 RMK SLP041 T00440033 PWINO TSNO $ VIA AUTODIAL
  • 301253Z AUTO 08010KT 6SM BR CLR 05/03 A2967 RMK SLP049 T00500033 PWINO TSNO $ VIA AUTODIAL

TAF PASN
Valid from the 30 at 12:00 until the 31 at 12:00 UTC


301131Z 3012/3112 09012KT P6SM SKC
TEMPO 3012/3016 4SM BR OVC002
FM301600 08013KT P6SM OVC015
FM302100 16015G25KT P6SM VCSH SCT007 OVC025
FM310000 09015G25KT 3SM -SHRA BR SCT003 OVC007
PAZA FIR / North America



MET'MAP, your aeronautical weather chart ! - Copyright ORBIFLY December 2007 - Disclaimer

ORBIFLY MET'MAP TEAM :

Programming & Development : Alexandra Zaïnal
Concept & original design : Baudouin d'Aumeries
Assistance for programming : Marc-Olivier Méhu
Technical & hardware support : Manuel Goepfert

Contact : metmap@orbifly.com




SOURCES & CREDITS :

   NOAA       Earth
Advisory